Time,TemperatureF,DewpointF,PressureIn,WindDirection,WindDirectionDegrees,WindSpeedMPH,WindSpeedGustMPH,Humidity,HourlyPrecipIn,Conditions,Clouds,dailyrainin,SolarRadiationWatts/m^2,SoftwareType,DateUTC
2013-07-11 00:06:00,70.2,36.0,29.51,North,-999,-999.0,-999.0,5,0.00,,,-99.99,0.0,Linux-Irox,2013-07-11 07:06:00,
2013-07-11 00:16:00,69.8,35.6,29.51,North,-999,-999.0,-999.0,5,0.00,,,-99.99,0.0,Linux-Irox,2013-07-11 07:16:00,
2013-07-11 00:26:00,69.8,35.6,29.51,North,-999,-999.0,-999.0,5,0.00,,,-99.99,0.0,Linux-Irox,2013-07-11 07:26:00,
2013-07-11 00:46:00,69.1,34.9,29.50,North,-999,-999.0,-999.0,5,0.00,,,-99.99,0.0,Linux-Irox,2013-07-11 07:46:00,
2013-07-11 01:06:00,68.5,34.3,29.50,North,-999,-999.0,-999.0,5,0.00,,,-99.99,0.0,Linux-Irox,2013-07-11 08:06:00,
2013-07-11 01:26:00,68.5,34.3,29.50,North,-999,-999.0,-999.0,5,0.00,,,-99.99,0.0,Linux-Irox,2013-07-11 08:26:00,
2013-07-11 01:46:00,68.0,33.8,29.49,North,-999,-999.0,-999.0,5,0.00,,,-99.99,0.0,Linux-Irox,2013-07-11 08:46:00,
2013-07-11 01:56:00,68.0,33.8,29.49,North,-999,-999.0,-999.0,5,0.00,,,-99.99,0.0,Linux-Irox,2013-07-11 08:56:00,
2013-07-11 02:06:00,68.2,34.0,29.49,North,-999,-999.0,-999.0,5,0.00,,,-99.99,0.0,Linux-Irox,2013-07-11 09:06:00,
2013-07-11 02:16:00,67.6,33.4,29.49,North,-999,-999.0,-999.0,5,0.00,,,-99.99,0.0,Linux-Irox,2013-07-11 09:16:00,
2013-07-11 02:26:00,67.1,32.9,29.48,North,-999,-999.0,-999.0,5,0.00,,,-99.99,0.0,Linux-Irox,2013-07-11 09:26:00,
2013-07-11 02:36:00,66.7,32.5,29.48,North,-999,-999.0,-999.0,5,0.00,,,-99.99,0.0,Linux-Irox,2013-07-11 09:36:00,
2013-07-11 02:46:00,66.6,32.4,29.49,North,-999,-999.0,-999.0,5,0.00,,,-99.99,0.0,Linux-Irox,2013-07-11 09:46:00,
2013-07-11 02:56:00,66.4,32.2,29.49,North,-999,-999.0,-999.0,5,0.00,,,-99.99,0.0,Linux-Irox,2013-07-11 09:56:00,
2013-07-11 03:06:00,66.4,32.2,29.49,North,-999,-999.0,-999.0,5,0.00,,,-99.99,0.0,Linux-Irox,2013-07-11 10:06:00,
2013-07-11 03:16:00,66.0,31.8,29.49,North,-999,-999.0,-999.0,5,0.00,,,-99.99,0.0,Linux-Irox,2013-07-11 10:16:00,
2013-07-11 03:26:00,65.8,31.6,29.48,North,-999,-999.0,-999.0,5,0.00,,,-99.99,0.0,Linux-Irox,2013-07-11 10:26:00,
2013-07-11 03:36:00,65.7,31.5,29.48,North,-999,-999.0,-999.0,5,0.00,,,-99.99,0.0,Linux-Irox,2013-07-11 10:36:00,
2013-07-11 03:46:00,65.7,31.5,29.48,North,-999,-999.0,-999.0,5,0.00,,,-99.99,0.0,Linux-Irox,2013-07-11 10:46:00,
2013-07-11 03:56:00,65.7,31.5,29.48,North,-999,-999.0,-999.0,5,0.00,,,-99.99,0.0,Linux-Irox,2013-07-11 10:56:00,
2013-07-11 04:06:00,66.7,32.5,29.48,North,-999,-999.0,-999.0,5,0.00,,,-99.99,0.0,Linux-Irox,2013-07-11 11:06:00,
2013-07-11 04:16:00,66.0,31.8,29.48,North,-999,-999.0,-999.0,5,0.00,,,-99.99,0.0,Linux-Irox,2013-07-11 11:16:00,
2013-07-11 04:26:00,65.8,31.6,29.47,North,-999,-999.0,-999.0,5,0.00,,,-99.99,0.0,Linux-Irox,2013-07-11 11:26:00,
2013-07-11 04:36:00,65.7,31.5,29.47,North,-999,-999.0,-999.0,5,0.00,,,-99.99,0.0,Linux-Irox,2013-07-11 11:36:00,
2013-07-11 04:46:00,65.1,30.9,29.47,North,-999,-999.0,-999.0,5,0.00,,,-99.99,0.0,Linux-Irox,2013-07-11 11:46:00,
2013-07-11 04:56:00,64.2,30.0,29.47,North,-999,-999.0,-999.0,5,0.00,,,-99.99,0.0,Linux-Irox,2013-07-11 11:56:00,
2013-07-11 05:06:00,63.7,29.5,29.47,North,-999,-999.0,-999.0,5,0.00,,,-99.99,0.0,Linux-Irox,2013-07-11 12:06:00,
2013-07-11 05:26:00,63.3,29.1,29.48,North,-999,-999.0,-999.0,5,0.00,,,-99.99,0.0,Linux-Irox,2013-07-11 12:26:00,
2013-07-11 05:36:00,62.8,28.6,29.48,North,-999,-999.0,-999.0,5,0.00,,,-99.99,0.0,Linux-Irox,2013-07-11 12:36:00,
2013-07-11 05:46:00,62.4,28.2,29.48,North,-999,-999.0,-999.0,5,0.00,,,-99.99,0.0,Linux-Irox,2013-07-11 12:46:00,
2013-07-11 05:56:00,62.2,28.0,29.48,North,-999,-999.0,-999.0,5,0.00,,,-99.99,0.0,Linux-Irox,2013-07-11 12:56:00,
2013-07-11 06:06:00,62.1,27.9,29.48,North,-999,-999.0,-999.0,5,0.00,,,-99.99,0.0,Linux-Irox,2013-07-11 13:06:00,
2013-07-11 06:16:00,61.5,27.3,29.48,North,-999,-999.0,-999.0,5,0.00,,,-99.99,0.0,Linux-Irox,2013-07-11 13:16:00,
2013-07-11 06:26:00,61.3,27.1,29.48,North,-999,-999.0,-999.0,5,0.00,,,-99.99,0.0,Linux-Irox,2013-07-11 13:26:00,
2013-07-11 06:46:00,62.4,28.2,29.48,North,-999,-999.0,-999.0,5,0.03,,,-99.99,0.0,Linux-Irox,2013-07-11 13:46:00,
2013-07-11 07:02:00,68.4,34.2,29.48,North,-999,-999.0,-999.0,5,0.00,,,-99.99,0.0,Linux-Irox,2013-07-11 14:02:00,
2013-07-11 07:16:00,77.0,42.8,29.48,North,-999,-999.0,-999.0,5,0.00,,,-99.99,0.0,Linux-Irox,2013-07-11 14:16:00,
2013-07-11 07:26:00,80.8,46.6,29.48,North,-999,-999.0,-999.0,5,0.00,,,-99.99,0.0,Linux-Irox,2013-07-11 14:26:00,
2013-07-11 07:32:00,80.8,46.6,29.48,North,-999,-999.0,-999.0,5,0.00,,,-99.99,0.0,Linux-Irox,2013-07-11 14:32:00,
2013-07-11 07:36:00,82.0,47.8,29.48,North,-999,-999.0,-999.0,5,0.00,,,-99.99,0.0,Linux-Irox,2013-07-11 14:36:00,
2013-07-11 07:46:00,83.7,49.5,29.48,North,-999,-999.0,-999.0,5,0.00,,,-99.99,0.0,Linux-Irox,2013-07-11 14:46:00,
2013-07-11 07:47:00,83.7,49.5,29.48,North,-999,-999.0,-999.0,5,0.00,,,-99.99,0.0,Linux-Irox,2013-07-11 14:47:00,
2013-07-11 07:56:00,81.9,47.7,29.48,North,-999,-999.0,-999.0,5,0.00,,,-99.99,0.0,Linux-Irox,2013-07-11 14:56:00,
2013-07-11 08:02:00,81.5,47.3,29.49,North,-999,-999.0,-999.0,5,0.00,,,-99.99,0.0,Linux-Irox,2013-07-11 15:02:00,
2013-07-11 08:16:00,77.7,43.5,29.49,North,-999,-999.0,-999.0,5,0.00,,,-99.99,0.0,Linux-Irox,2013-07-11 15:16:00,
2013-07-11 08:32:00,81.1,46.9,29.49,North,-999,-999.0,-999.0,5,0.00,,,-99.99,0.0,Linux-Irox,2013-07-11 15:32:00,
2013-07-11 08:47:00,86.2,52.0,29.49,North,-999,-999.0,-999.0,5,0.00,,,-99.99,0.0,Linux-Irox,2013-07-11 15:47:00,
2013-07-11 09:02:00,87.8,53.6,29.49,North,-999,-999.0,-999.0,5,0.00,,,-99.99,0.0,Linux-Irox,2013-07-11 16:02:00,
2013-07-11 09:17:00,89.2,55.0,29.49,North,-999,-999.0,-999.0,5,0.00,,,-99.99,0.0,Linux-Irox,2013-07-11 16:17:00,
2013-07-11 09:31:00,90.1,55.9,29.48,North,-999,-999.0,-999.0,5,0.00,,,-99.99,0.0,Linux-Irox,2013-07-11 16:31:00,